createdAt,value
2023-05-04T00:01:36.596Z,101034.13
2023-05-04T00:04:07.008Z,101037.28
2023-05-04T00:06:37.452Z,101030.38
2023-05-04T00:09:08.040Z,101029.59
2023-05-04T00:11:38.126Z,101033.59
2023-05-04T00:14:08.986Z,101019.84
2023-05-04T00:16:41.467Z,101015.78
2023-05-04T00:19:12.370Z,101023.44
2023-05-04T00:21:42.844Z,101022.59
2023-05-04T00:24:13.077Z,101021.81
2023-05-04T00:26:43.327Z,101014.53
2023-05-04T00:29:13.818Z,101011.69
2023-05-04T00:31:46.529Z,101006.06
2023-05-04T00:34:17.290Z,100995.16
2023-05-04T00:36:48.112Z,100995.50
2023-05-04T00:39:18.116Z,100991.03
2023-05-04T00:41:49.178Z,100986.97
2023-05-04T00:44:19.170Z,100986.16
2023-05-04T00:46:52.204Z,100974.03
2023-05-04T00:49:23.476Z,100972.81
2023-05-04T00:51:57.439Z,100971.16
2023-05-04T00:54:28.325Z,100967.91
2023-05-04T00:56:59.452Z,100969.09
2023-05-04T00:59:29.308Z,100963.03
2023-05-04T01:02:01.239Z,100963.38
2023-05-04T01:04:31.717Z,100960.94
2023-05-04T01:07:16.871Z,100956.88
2023-05-04T01:09:54.020Z,100964.88
2023-05-04T01:12:38.320Z,100963.25
2023-05-04T01:15:11.763Z,100946.25
2023-05-04T01:17:44.165Z,100941.81
2023-05-04T01:20:14.952Z,100936.88
2023-05-04T01:22:47.773Z,100939.25
2023-05-04T01:25:18.755Z,100938.81
2023-05-04T01:27:58.479Z,100928.28
2023-05-04T01:30:38.469Z,100926.19
2023-05-04T01:33:10.262Z,100931.03
2023-05-04T01:35:41.006Z,100928.56
2023-05-04T01:38:13.582Z,100928.97
2023-05-04T01:40:44.363Z,100924.06
2023-05-04T01:43:14.591Z,100925.63
2023-05-04T01:45:44.852Z,100926.00
2023-05-04T01:48:15.173Z,100919.13
2023-05-04T01:50:45.471Z,100918.66
2023-05-04T01:53:18.071Z,100908.56
2023-05-04T01:55:47.940Z,100911.78
2023-05-04T01:58:18.779Z,100910.50
2023-05-04T02:00:49.690Z,100906.03
2023-05-04T02:03:19.555Z,100905.63
2023-05-04T02:05:50.702Z,100909.63
2023-05-04T02:08:22.788Z,100908.81
2023-05-04T02:10:53.388Z,100907.56
2023-05-04T02:13:24.328Z,100907.94
2023-05-04T02:15:54.573Z,100912.28
2023-05-04T02:18:24.947Z,100906.22
2023-05-04T02:20:55.218Z,100908.94
2023-05-04T02:23:28.088Z,100921.44
2023-05-04T02:25:58.362Z,100924.16
2023-05-04T02:28:28.979Z,100927.75
2023-05-04T02:30:59.952Z,100932.09
2023-05-04T02:33:29.940Z,100934.84
2023-05-04T02:35:59.909Z,100934.75
2023-05-04T02:38:31.825Z,100947.59
2023-05-04T02:41:02.399Z,100945.50
2023-05-04T02:43:33.136Z,100943.06
2023-05-04T02:46:03.680Z,100946.25
2023-05-04T02:48:34.235Z,100943.78
2023-05-04T02:51:04.742Z,100944.63
2023-05-04T02:53:36.969Z,100945.41
2023-05-04T02:56:07.800Z,100947.44
2023-05-04T02:58:37.840Z,100945.41
2023-05-04T03:01:08.095Z,100937.81
2023-05-04T03:03:38.591Z,100943.84
2023-05-04T03:06:09.325Z,100952.31
2023-05-04T03:08:41.284Z,100950.31
2023-05-04T03:11:11.210Z,100953.50
2023-05-04T03:13:41.737Z,100955.50
2023-05-04T03:16:11.894Z,100959.50
2023-05-04T03:18:42.573Z,100955.50
2023-05-04T03:21:12.394Z,100960.34
2023-05-04T03:23:45.683Z,100968.41
2023-05-04T03:26:16.256Z,100965.59
2023-05-04T03:28:47.000Z,100976.50
2023-05-04T03:31:17.649Z,100968.03
2023-05-04T03:33:47.836Z,100977.31
2023-05-04T03:36:18.008Z,100966.84
2023-05-04T03:38:49.640Z,100974.94
2023-05-04T03:41:21.209Z,100974.94
2023-05-04T03:43:51.967Z,100972.13
2023-05-04T03:46:22.505Z,100972.94
2023-05-04T03:48:53.052Z,100978.59
2023-05-04T03:51:23.338Z,100974.13
2023-05-04T03:53:54.661Z,100972.13
2023-05-04T03:56:25.136Z,100970.13
2023-05-04T03:58:55.301Z,100973.75
2023-05-04T04:01:25.555Z,100975.75
2023-05-04T04:03:55.306Z,100980.22
2023-05-04T04:06:26.214Z,100970.13
2023-05-04T04:08:59.312Z,100970.13
2023-05-04T04:11:29.793Z,100981.41
2023-05-04T04:14:00.199Z,100981.41
2023-05-04T04:16:30.247Z,100982.19
2023-05-04T04:19:02.191Z,100987.50
2023-05-04T04:21:32.591Z,100990.75
2023-05-04T04:24:05.447Z,100996.84
2023-05-04T04:26:37.037Z,100995.69
2023-05-04T04:29:08.103Z,100996.94
2023-05-04T04:31:38.203Z,100997.38
2023-05-04T04:34:08.860Z,100997.47
2023-05-04T04:36:39.084Z,101002.75
2023-05-04T04:39:11.612Z,101000.00
2023-05-04T04:41:42.550Z,100999.28
2023-05-04T04:44:13.061Z,100999.34
2023-05-04T04:46:44.968Z,101000.22
2023-05-04T04:49:18.160Z,101001.13
2023-05-04T04:51:49.323Z,101005.66
2023-05-04T04:54:21.244Z,101002.50
2023-05-04T04:56:51.110Z,101011.06
2023-05-04T04:59:25.013Z,101007.94
2023-05-04T05:01:55.160Z,101010.81
2023-05-04T05:04:25.642Z,101013.38
2023-05-04T05:06:56.064Z,101013.88
2023-05-04T05:09:28.210Z,101009.13
2023-05-04T05:11:58.435Z,101012.47
2023-05-04T05:14:28.451Z,101015.81
2023-05-04T05:16:58.842Z,101021.97
2023-05-04T05:19:29.448Z,101016.03
2023-05-04T05:21:59.920Z,101021.34
2023-05-04T05:24:32.408Z,101017.84
2023-05-04T05:27:03.082Z,101026.00
2023-05-04T05:29:33.265Z,101028.13
2023-05-04T05:32:03.905Z,101023.00
2023-05-04T05:34:33.981Z,101022.31
2023-05-04T05:37:04.583Z,101034.16
2023-05-04T05:39:37.595Z,101023.34
2023-05-04T05:42:08.527Z,101023.03
2023-05-04T05:44:39.127Z,101029.16
2023-05-04T05:47:09.586Z,101034.50
2023-05-04T05:49:39.714Z,101018.06
2023-05-04T05:52:10.062Z,101017.72
2023-05-04T05:54:43.208Z,101024.25
2023-05-04T05:57:13.648Z,101022.69
2023-05-04T05:59:45.247Z,101019.53
2023-05-04T06:02:16.305Z,101021.22
2023-05-04T06:04:47.465Z,101022.53
2023-05-04T06:07:18.243Z,101015.75
2023-05-04T06:09:51.037Z,101016.25
2023-05-04T06:12:21.852Z,101020.75
2023-05-04T06:14:52.446Z,101024.88
2023-05-04T06:17:22.760Z,101020.88
2023-05-04T06:19:53.071Z,101012.88
2023-05-04T06:22:23.720Z,101014.22
2023-05-04T06:25:01.569Z,101009.03
2023-05-04T06:27:34.369Z,101009.88
2023-05-04T06:30:04.902Z,101008.34
2023-05-04T06:32:35.698Z,101015.28
2023-05-04T06:35:06.794Z,101010.13
2023-05-04T06:37:37.330Z,101004.97
2023-05-04T06:40:11.914Z,101008.25
2023-05-04T06:42:43.121Z,101000.25
2023-05-04T06:45:14.663Z,100998.69
2023-05-04T06:47:45.000Z,100985.41
2023-05-04T06:50:16.872Z,100992.31
2023-05-04T06:52:48.685Z,100987.97
2023-05-04T06:55:21.512Z,100984.75
2023-05-04T06:57:53.437Z,100986.44
2023-05-04T07:00:24.704Z,100982.06
2023-05-04T07:02:55.669Z,100968.38
2023-05-04T07:05:26.700Z,100969.66
2023-05-04T07:07:59.250Z,100972.09
2023-05-04T07:10:31.892Z,100968.53
2023-05-04T07:13:02.347Z,100960.47
2023-05-04T07:15:34.156Z,100961.75
2023-05-04T07:18:04.801Z,100954.09
2023-05-04T07:20:35.363Z,100953.31
2023-05-04T07:23:05.658Z,100954.56
2023-05-04T07:25:38.067Z,100953.03
2023-05-04T07:28:08.501Z,100939.31
2023-05-04T07:30:39.234Z,100934.91
2023-05-04T07:33:09.485Z,100932.50
2023-05-04T07:35:39.480Z,100928.06
2023-05-04T07:38:09.462Z,100928.50
2023-05-04T07:40:42.299Z,100924.09
2023-05-04T07:43:12.046Z,100920.06
2023-05-04T07:45:42.551Z,100912.38
2023-05-04T07:48:12.649Z,100912.81
2023-05-04T07:50:43.738Z,100925.78
2023-05-04T07:53:14.318Z,100931.53
2023-05-04T07:55:46.064Z,100943.31
2023-05-04T07:58:17.148Z,100934.81
2023-05-04T08:00:47.509Z,100943.75
2023-05-04T08:03:18.207Z,100944.19
2023-05-04T08:05:47.975Z,100940.94
2023-05-04T08:08:18.706Z,100940.16
2023-05-04T08:10:50.173Z,100935.34
2023-05-04T08:13:20.692Z,100932.09
2023-05-04T08:15:51.727Z,100939.81
2023-05-04T08:18:21.580Z,100926.47
2023-05-04T08:20:51.827Z,100921.59
2023-05-04T08:23:22.107Z,100925.69
2023-05-04T08:25:54.687Z,100926.06
2023-05-04T08:28:25.201Z,100923.25
2023-05-04T08:30:55.885Z,100924.06
2023-05-04T08:33:26.672Z,100928.53
2023-05-04T08:35:57.326Z,100924.88
2023-05-04T08:38:28.226Z,100920.03
2023-05-04T08:40:59.938Z,100917.19
2023-05-04T08:43:31.467Z,100907.03
2023-05-04T08:46:02.181Z,100907.44
2023-05-04T08:48:35.104Z,100900.94
2023-05-04T08:51:06.682Z,100905.00
2023-05-04T08:53:43.110Z,100900.53
2023-05-04T08:56:18.084Z,100898.13
2023-05-04T08:58:52.800Z,100891.63
2023-05-04T09:01:24.103Z,100898.53
2023-05-04T09:03:54.832Z,100886.75
2023-05-04T09:06:26.399Z,100874.97
2023-05-04T09:08:56.590Z,100878.22
2023-05-04T09:11:29.785Z,100872.13
2023-05-04T09:14:00.186Z,100872.53
2023-05-04T09:16:38.122Z,100878.63
2023-05-04T09:19:20.753Z,100871.72
2023-05-04T09:21:54.741Z,100868.88
2023-05-04T09:24:32.335Z,100871.31
2023-05-04T09:27:14.427Z,100867.25
2023-05-04T09:29:45.431Z,100870.50
2023-05-04T09:32:16.465Z,100876.97
2023-05-04T09:34:53.772Z,100861.53
2023-05-04T09:37:25.004Z,100862.75
2023-05-04T09:40:01.201Z,100863.16
2023-05-04T09:42:34.189Z,100850.59
2023-05-04T09:45:06.942Z,100849.38
2023-05-04T09:47:39.918Z,100846.53
2023-05-04T09:50:22.882Z,100852.63
2023-05-04T09:52:53.772Z,100842.47
2023-05-04T09:55:28.883Z,100837.19
2023-05-04T09:58:03.403Z,100831.91
2023-05-04T10:00:34.090Z,100837.56
2023-05-04T10:03:08.839Z,100826.97
2023-05-04T10:05:41.803Z,100824.53
2023-05-04T10:08:11.821Z,100822.09
2023-05-04T10:10:43.689Z,100811.94
2023-05-04T10:13:16.077Z,100818.81
2023-05-04T10:16:05.049Z,100809.06
2023-05-04T10:18:55.756Z,100810.69
2023-05-04T10:21:37.068Z,100803.00
2023-05-04T10:24:49.438Z,100801.78
2023-05-04T10:27:39.892Z,100796.06
2023-05-04T10:30:17.520Z,100796.88
2023-05-04T10:32:48.552Z,100795.69
2023-05-04T10:35:22.349Z,100785.94
2023-05-04T10:37:57.027Z,100777.81
2023-05-04T10:40:42.428Z,100781.44
2023-05-04T10:43:23.448Z,100790.78
2023-05-04T10:45:58.025Z,100784.69
2023-05-04T10:48:38.023Z,100779.41
2023-05-04T10:51:18.889Z,100774.94
2023-05-04T10:53:49.875Z,100770.88
2023-05-04T10:56:27.825Z,100761.50
2023-05-04T10:58:58.504Z,100752.97
2023-05-04T11:01:31.223Z,100749.72
2023-05-04T11:04:03.243Z,100748.88
2023-05-04T11:06:33.777Z,100743.19
2023-05-04T11:09:11.237Z,100744.78
2023-05-04T11:11:41.303Z,100742.78
2023-05-04T11:14:13.518Z,100739.50
2023-05-04T11:16:45.981Z,100737.06
2023-05-04T11:19:16.163Z,100733.78
2023-05-04T11:21:46.639Z,100726.88
2023-05-04T11:24:17.179Z,100726.44
2023-05-04T11:26:51.942Z,100716.69
2023-05-04T11:29:22.358Z,100707.75
2023-05-04T11:32:00.444Z,100708.13
2023-05-04T11:34:31.721Z,100697.56
2023-05-04T11:37:01.682Z,100688.59
2023-05-04T11:39:35.302Z,100683.31
2023-05-04T11:42:10.211Z,100680.03
2023-05-04T11:44:41.280Z,100668.66
2023-05-04T11:47:14.098Z,100672.72
2023-05-04T11:49:48.018Z,100668.66
2023-05-04T11:52:18.493Z,100657.28
2023-05-04T11:54:59.504Z,100655.63
2023-05-04T11:57:29.225Z,100659.25
2023-05-04T11:59:59.784Z,100655.19
2023-05-04T12:02:32.219Z,100649.06
2023-05-04T12:05:03.697Z,100642.97
2023-05-04T12:07:39.747Z,100638.06
2023-05-04T12:10:10.677Z,100637.28
2023-05-04T12:12:41.276Z,100626.69
2023-05-04T12:15:12.537Z,100628.31
2023-05-04T12:17:47.142Z,100616.94
2023-05-04T12:20:28.643Z,100612.06
2023-05-04T12:22:59.839Z,100604.31
2023-05-04T12:25:30.434Z,100610.00
2023-05-04T12:28:00.698Z,100607.56
2023-05-04T12:30:31.221Z,100602.66
2023-05-04T12:33:05.888Z,100605.50
2023-05-04T12:35:36.307Z,100598.59
2023-05-04T12:38:07.360Z,100594.94
2023-05-04T12:40:37.707Z,100584.34
2023-05-04T12:43:08.371Z,100588.06
2023-05-04T12:45:40.332Z,100586.00
2023-05-04T12:48:13.620Z,100574.63
2023-05-04T12:50:46.207Z,100581.50
2023-05-04T12:53:16.885Z,100579.53
2023-05-04T12:55:47.454Z,100575.03
2023-05-04T12:58:18.160Z,100569.34
2023-05-04T13:00:48.689Z,100571.34
2023-05-04T13:03:21.153Z,100563.63
2023-05-04T13:05:51.568Z,100561.63
2023-05-04T13:08:22.123Z,100551.88
2023-05-04T13:10:53.681Z,100554.31
2023-05-04T13:13:28.831Z,100548.63
2023-05-04T13:16:00.191Z,100546.22
2023-05-04T13:18:32.919Z,100545.38
2023-05-04T13:21:03.972Z,100539.69
2023-05-04T13:23:34.726Z,100539.34
2023-05-04T13:26:04.827Z,100529.19
2023-05-04T13:28:36.263Z,100532.03
2023-05-04T13:31:09.229Z,100524.72
2023-05-04T13:33:41.827Z,100527.56
2023-05-04T13:36:12.693Z,100515.34
2023-05-04T13:38:42.851Z,100518.63
2023-05-04T13:41:13.342Z,100514.16
2023-05-04T13:43:43.452Z,100510.53
2023-05-04T13:46:14.011Z,100507.69
2023-05-04T13:48:46.121Z,100501.16
2023-05-04T13:51:16.289Z,100500.75
2023-05-04T13:53:47.043Z,100495.50
2023-05-04T13:56:17.118Z,100491.03
2023-05-04T13:58:48.122Z,100488.63
2023-05-04T14:01:18.652Z,100484.16
2023-05-04T14:03:51.148Z,100480.50
2023-05-04T14:06:22.285Z,100481.75
2023-05-04T14:08:52.204Z,100482.16
2023-05-04T14:11:22.974Z,100474.84
2023-05-04T14:13:54.106Z,100475.28
2023-05-04T14:16:24.985Z,100458.22
2023-05-04T14:18:57.224Z,100463.50
2023-05-04T14:21:28.348Z,100461.88
2023-05-04T14:24:01.117Z,100454.59
2023-05-04T14:26:31.684Z,100458.66
2023-05-04T14:29:02.236Z,100463.16
2023-05-04T14:31:32.985Z,100461.53
2023-05-04T14:34:04.832Z,100455.50
2023-05-04T14:36:35.350Z,100451.03
2023-05-04T14:39:06.109Z,100455.09
2023-05-04T14:41:37.659Z,100449.81
2023-05-04T14:44:08.475Z,100448.19
2023-05-04T14:46:38.648Z,100448.63
2023-05-04T14:49:11.251Z,100443.38
2023-05-04T14:51:44.508Z,100440.94
2023-05-04T14:54:14.158Z,100444.19
2023-05-04T14:56:44.966Z,100436.91
2023-05-04T14:59:17.427Z,100436.50
2023-05-04T15:01:50.798Z,100437.72
2023-05-04T15:04:23.358Z,100442.59
2023-05-04T15:06:53.754Z,100436.94
2023-05-04T15:09:24.933Z,100438.16
2023-05-04T15:11:56.111Z,100435.75
2023-05-04T15:14:26.940Z,100436.59
2023-05-04T15:16:57.175Z,100436.19
2023-05-04T15:19:29.745Z,100432.56
2023-05-04T15:21:59.554Z,100430.53
2023-05-04T15:24:29.762Z,100433.81
2023-05-04T15:27:00.008Z,100431.38
2023-05-04T15:29:30.667Z,100431.00
2023-05-04T15:32:01.328Z,100434.25
2023-05-04T15:34:33.147Z,100433.88
2023-05-04T15:37:03.419Z,100440.41
2023-05-04T15:39:34.481Z,100440.81
2023-05-04T15:42:04.943Z,100438.81
2023-05-04T15:44:35.640Z,100441.28
2023-05-04T15:47:09.242Z,100440.88
2023-05-04T15:49:41.299Z,100441.31
2023-05-04T15:52:12.131Z,100432.81
2023-05-04T15:54:42.731Z,100442.56
2023-05-04T15:57:13.217Z,100433.66
2023-05-04T15:59:43.711Z,100435.28
2023-05-04T16:02:14.721Z,100435.69
2023-05-04T16:04:46.580Z,100438.97
2023-05-04T16:07:17.172Z,100432.09
2023-05-04T16:09:47.721Z,100435.72
2023-05-04T16:12:21.312Z,100438.16
2023-05-04T16:14:51.621Z,100435.75
2023-05-04T16:17:22.326Z,100430.50
2023-05-04T16:19:54.894Z,100430.91
2023-05-04T16:22:26.414Z,100434.56
2023-05-04T16:24:56.972Z,100435.00
2023-05-04T16:27:29.009Z,100441.09
2023-05-04T16:29:59.641Z,100432.19
2023-05-04T16:32:30.225Z,100438.28
2023-05-04T16:35:02.697Z,100435.06
2023-05-04T16:37:33.366Z,100436.69
2023-05-04T16:40:14.531Z,100440.75
2023-05-04T16:42:46.591Z,100442.38
2023-05-04T16:45:16.647Z,100434.72
2023-05-04T16:47:47.644Z,100431.88
2023-05-04T16:50:20.908Z,100438.78
2023-05-04T16:52:51.385Z,100446.88
2023-05-04T16:55:21.963Z,100433.13
2023-05-04T16:57:52.858Z,100441.25
2023-05-04T17:00:23.698Z,100446.09
2023-05-04T17:02:54.429Z,100449.34
2023-05-04T17:05:26.841Z,100447.75
2023-05-04T17:07:57.164Z,100448.16
2023-05-04T17:10:27.550Z,100444.94
2023-05-04T17:12:59.224Z,100452.66
2023-05-04T17:15:30.658Z,100446.56
2023-05-04T17:18:01.049Z,100451.41
2023-05-04T17:20:33.462Z,100449.00
2023-05-04T17:23:03.890Z,100464.44
2023-05-04T17:25:34.735Z,100464.44
2023-05-04T17:28:05.010Z,100466.88
2023-05-04T17:30:36.154Z,100463.66
2023-05-04T17:33:07.010Z,100465.66
2023-05-04T17:35:39.355Z,100470.56
2023-05-04T17:38:09.545Z,100473.75
2023-05-04T17:40:39.997Z,100471.34
2023-05-04T17:43:10.641Z,100483.13
2023-05-04T17:45:41.026Z,100478.66
2023-05-04T17:48:11.476Z,100486.34
2023-05-04T17:50:45.978Z,100481.09
2023-05-04T17:53:15.889Z,100480.69
2023-05-04T17:55:46.333Z,100487.59
2023-05-04T17:58:19.218Z,100488.81
2023-05-04T18:00:52.004Z,100488.41
2023-05-04T18:03:23.546Z,100490.44
2023-05-04T18:05:54.726Z,100480.31
2023-05-04T18:08:25.205Z,100490.03
2023-05-04T18:10:55.247Z,100492.09
2023-05-04T18:13:25.840Z,100495.31
2023-05-04T18:15:56.795Z,100491.69
2023-05-04T18:18:27.244Z,100492.91
2023-05-04T18:21:01.228Z,100492.09
2023-05-04T18:23:31.769Z,100489.66
2023-05-04T18:26:02.378Z,100482.34
2023-05-04T18:28:33.572Z,100484.41
2023-05-04T18:31:03.994Z,100492.13
2023-05-04T18:33:35.291Z,100494.97
2023-05-04T18:36:08.328Z,100488.47
2023-05-04T18:38:38.357Z,100494.56
2023-05-04T18:41:09.154Z,100491.72
2023-05-04T18:43:39.593Z,100494.94
2023-05-04T18:46:10.589Z,100484.81
2023-05-04T18:48:40.381Z,100497.41
2023-05-04T18:51:13.745Z,100495.38
2023-05-04T18:53:44.352Z,100485.66
2023-05-04T18:56:14.616Z,100490.13
2023-05-04T18:58:44.529Z,100494.16
2023-05-04T19:01:15.319Z,100486.03
2023-05-04T19:03:47.595Z,100477.53
2023-05-04T19:06:19.323Z,100485.25
2023-05-04T19:08:50.134Z,100487.28
2023-05-04T19:11:20.762Z,100485.66
2023-05-04T19:13:51.470Z,100471.88
2023-05-04T19:16:22.103Z,100471.47
2023-05-04T19:18:53.008Z,100476.34
2023-05-04T19:21:25.218Z,100473.50
2023-05-04T19:23:55.715Z,100473.94
2023-05-04T19:26:26.476Z,100478.00
2023-05-04T19:28:57.066Z,100465.81
2023-05-04T19:31:27.709Z,100464.19
2023-05-04T19:33:58.126Z,100452.47
2023-05-04T19:36:31.013Z,100458.16
2023-05-04T19:39:01.152Z,100452.06
2023-05-04T19:41:31.836Z,100454.91
2023-05-04T19:44:01.990Z,100450.44
2023-05-04T19:46:32.484Z,100448.81
2023-05-04T19:49:03.503Z,100451.66
2023-05-04T19:51:36.712Z,100435.84
2023-05-04T19:54:08.263Z,100441.13
2023-05-04T19:56:39.625Z,100439.50
2023-05-04T19:59:10.339Z,100435.88
2023-05-04T20:01:41.018Z,100430.19
2023-05-04T20:04:11.047Z,100424.94
2023-05-04T20:06:43.291Z,100423.28
2023-05-04T20:09:13.935Z,100413.97
2023-05-04T20:11:44.833Z,100414.38
2023-05-04T20:14:15.735Z,100406.28
2023-05-04T20:16:46.501Z,100403.44
2023-05-04T20:19:17.572Z,100401.00
2023-05-04T20:21:49.085Z,100396.97
2023-05-04T20:24:19.560Z,100401.84
2023-05-04T20:26:50.216Z,100393.72
2023-05-04T20:29:21.530Z,100392.13
2023-05-04T20:31:51.636Z,100390.09
2023-05-04T20:34:22.130Z,100387.66
2023-05-04T20:36:54.794Z,100384.81
2023-05-04T20:39:25.842Z,100382.41
2023-05-04T20:41:56.508Z,100381.19
2023-05-04T20:44:28.388Z,100384.44
2023-05-04T20:46:58.949Z,100377.94
2023-05-04T20:49:30.057Z,100375.13
2023-05-04T20:52:02.324Z,100367.81
2023-05-04T20:54:32.952Z,100364.19
2023-05-04T20:57:03.976Z,100356.91
2023-05-04T20:59:34.930Z,100354.06
2023-05-04T21:02:04.890Z,100356.91
2023-05-04T21:04:34.978Z,100348.00
2023-05-04T21:07:07.486Z,100348.00
2023-05-04T21:09:37.935Z,100343.53
2023-05-04T21:12:08.506Z,100332.63
2023-05-04T21:14:39.601Z,100337.06
2023-05-04T21:17:10.178Z,100328.94
2023-05-04T21:19:39.976Z,100320.44
2023-05-04T21:22:12.649Z,100323.69
2023-05-04T21:24:43.368Z,100320.06
2023-05-04T21:27:13.819Z,100309.94
2023-05-04T21:29:44.314Z,100309.94
2023-05-04T21:32:14.724Z,100301.84
2023-05-04T21:34:45.111Z,100306.72
2023-05-04T21:37:17.099Z,100297.81
2023-05-04T21:39:47.818Z,100289.72
2023-05-04T21:42:18.327Z,100291.72
2023-05-04T21:44:48.476Z,100277.19
2023-05-04T21:47:18.972Z,100270.69
2023-05-04T21:49:48.882Z,100271.91
2023-05-04T21:52:21.431Z,100273.13
2023-05-04T21:54:51.920Z,100274.34
2023-05-04T21:57:22.054Z,100274.34
2023-05-04T21:59:52.482Z,100278.41
2023-05-04T22:02:22.945Z,100272.75
2023-05-04T22:04:53.143Z,100269.09
2023-05-04T22:07:25.282Z,100273.13
2023-05-04T22:09:55.669Z,100270.72
2023-05-04T22:12:25.532Z,100259.38
2023-05-04T22:14:56.094Z,100271.13
2023-05-04T22:17:27.454Z,100264.66
2023-05-04T22:19:58.264Z,100268.72
2023-05-04T22:22:30.064Z,100261.41
2023-05-04T22:25:00.390Z,100261.00
2023-05-04T22:27:30.714Z,100267.94
2023-05-04T22:30:01.127Z,100261.84
2023-05-04T22:32:31.129Z,100260.25
2023-05-04T22:35:02.095Z,100262.25
2023-05-04T22:37:34.636Z,100262.66
2023-05-04T22:40:06.628Z,100264.72
2023-05-04T22:42:37.184Z,100255.78
2023-05-04T22:45:08.881Z,100252.94
2023-05-04T22:47:39.436Z,100272.78
2023-05-04T22:50:11.609Z,100257.00
2023-05-04T22:52:43.848Z,100246.88
2023-05-04T22:55:13.934Z,100250.91
2023-05-04T22:57:44.444Z,100244.84
2023-05-04T23:00:16.696Z,100252.16
2023-05-04T23:02:47.471Z,100254.56
2023-05-04T23:05:17.395Z,100244.88
2023-05-04T23:07:49.880Z,100248.94
2023-05-04T23:10:20.269Z,100255.03
2023-05-04T23:12:50.797Z,100247.72
2023-05-04T23:15:20.841Z,100240.88
2023-05-04T23:17:51.342Z,100246.53
2023-05-04T23:20:21.937Z,100240.03
2023-05-04T23:22:53.648Z,100224.25
2023-05-04T23:25:24.434Z,100230.34
2023-05-04T23:27:54.810Z,100234.41
2023-05-04T23:30:24.923Z,100219.81
2023-05-04T23:32:55.671Z,100217.41
2023-05-04T23:35:27.261Z,100215.78
2023-05-04T23:37:59.662Z,100204.06
2023-05-04T23:40:29.779Z,100199.59
2023-05-04T23:43:00.196Z,100197.19
2023-05-04T23:45:30.762Z,100202.03
2023-05-04T23:48:01.177Z,100189.91
2023-05-04T23:50:31.660Z,100201.25
2023-05-04T23:53:04.302Z,100191.94
2023-05-04T23:55:34.525Z,100194.78
2023-05-04T23:58:05.261Z,100193.97
